Time;durP1;ratioP1;P1;durP2;ratioP2;P2;SDS_P1;SDS_P2;PMS_P1;PMS_P2;Temp;Humidity;BMP_temperature;BMP_pressure;BME280_temperature;BME280_humidity;BME280_pressure;Samples;Min_cycle;Max_cycle;Signal;HPM_P1;HPM_P2
2023/03/10 00:00:56;;;;;;;15.88;7.47;;;0.40;65.80;;;;;;4114310;28;20034;-85
2023/03/10 00:02:56;;;;;;;17.23;8.02;;;0.40;65.80;;;;;;4117942;28;20066;-86
2023/03/10 00:04:57;;;;;;;14.25;7.43;;;0.30;65.80;;;;;;4119156;28;20023;-86
2023/03/10 00:07:01;;;;;;;21.75;8.55;;;0.20;65.70;;;;;;4098554;28;20032;-86
2023/03/10 00:09:21;;;;;;;16.20;7.95;;;0.20;65.80;;;;;;4115841;28;20854;-85
2023/03/10 00:11:22;;;;;;;15.77;8.07;;;0.20;65.90;;;;;;4101191;28;20134;-86
2023/03/10 00:13:43;;;;;;;21.67;8.50;;;0.10;65.90;;;;;;4101506;28;20498;-85
2023/03/10 00:16:05;;;;;;;17.30;7.75;;;0.10;66.00;;;;;;4116353;28;20022;-86
2023/03/10 00:18:24;;;;;;;16.27;7.68;;;0.10;66.00;;;;;;4117793;28;20437;-86
2023/03/10 00:20:48;;;;;;;16.10;8.23;;;0.10;66.00;;;;;;4116387;28;20095;-85
2023/03/10 00:23:12;;;;;;;15.27;7.60;;;0.00;66.00;;;;;;4122381;28;20038;-86
2023/03/10 00:25:38;;;;;;;15.80;8.63;;;0.00;66.00;;;;;;4121646;28;20114;-85
2023/03/10 00:27:40;;;;;;;20.92;8.80;;;-0.10;66.10;;;;;;4102624;28;20092;-85
2023/03/10 00:30:01;;;;;;;15.43;7.75;;;0.00;66.10;;;;;;4120312;28;20038;-86
2023/03/10 00:32:25;;;;;;;18.33;8.80;;;0.00;66.20;;;;;;4109193;28;20050;-87
2023/03/10 00:34:48;;;;;;;19.55;7.93;;;0.00;66.20;;;;;;4113676;28;20029;-86
2023/03/10 00:37:11;;;;;;;17.98;7.25;;;-0.10;67.00;;;;;;4103051;28;20202;-85
2023/03/10 00:39:32;;;;;;;15.27;7.53;;;-0.10;66.40;;;;;;4115357;28;20039;-85
2023/03/10 00:41:53;;;;;;;18.70;7.65;;;-0.10;66.50;;;;;;4098975;28;20045;-86
2023/03/10 00:44:16;;;;;;;17.00;7.20;;;-0.20;66.30;;;;;;4114475;28;20051;-85
2023/03/10 00:46:37;;;;;;;16.15;8.27;;;-0.20;66.30;;;;;;4113805;28;20396;-85
2023/03/10 00:48:58;;;;;;;13.95;7.22;;;-0.30;67.10;;;;;;4113946;28;20093;-86
2023/03/10 00:51:23;;;;;;;18.58;8.40;;;-0.20;66.30;;;;;;4114031;28;20123;-85
2023/03/10 00:53:43;;;;;;;16.23;7.57;;;-0.30;66.30;;;;;;4107996;28;20034;-85
2023/03/10 00:56:16;;;;;;;16.13;7.50;;;-0.20;66.50;;;;;;4109402;28;20435;-85
2023/03/10 00:58:44;;;;;;;17.92;7.18;;;-0.30;66.50;;;;;;4111841;28;20595;-86
2023/03/10 01:01:20;;;;;;;20.35;7.88;;;-0.40;66.40;;;;;;4114288;28;20046;-85
2023/03/10 01:03:41;;;;;;;14.95;7.43;;;-0.40;66.40;;;;;;4114749;28;20436;-85
2023/03/10 01:06:02;;;;;;;14.25;6.95;;;-0.40;66.50;;;;;;4118129;28;20031;-85
2023/03/10 01:08:23;;;;;;;17.52;7.97;;;-0.50;66.50;;;;;;4115856;28;20082;-85
2023/03/10 01:10:45;;;;;;;16.17;7.97;;;-0.40;66.60;;;;;;4113822;28;20051;-85
2023/03/10 01:13:06;;;;;;;16.58;7.78;;;-0.50;66.60;;;;;;4118788;28;20023;-86
2023/03/10 01:15:27;;;;;;;15.18;7.60;;;-0.50;66.70;;;;;;4098172;28;20054;-86
2023/03/10 01:17:50;;;;;;;17.35;8.23;;;-0.60;66.60;;;;;;4116112;28;20046;-86
2023/03/10 01:20:15;;;;;;;16.27;8.00;;;-0.50;66.70;;;;;;4112896;28;20034;-84
2023/03/10 01:22:45;;;;;;;17.77;7.75;;;-0.60;66.70;;;;;;4118550;28;20031;-85
2023/03/10 01:25:08;;;;;;;18.42;7.53;;;-0.60;66.80;;;;;;4117905;28;20129;-85
2023/03/10 01:27:31;;;;;;;19.48;8.43;;;-0.70;66.70;;;;;;4118618;28;20051;-86
2023/03/10 01:29:55;;;;;;;14.95;7.78;;;-0.70;66.70;;;;;;4105265;28;20040;-86
2023/03/10 01:32:16;;;;;;;16.88;8.05;;;-0.60;66.80;;;;;;4119516;28;20023;-85
2023/03/10 01:34:36;;;;;;;18.00;7.55;;;-0.70;66.90;;;;;;4117467;28;20042;-86
2023/03/10 01:36:57;;;;;;;16.30;8.18;;;-0.80;66.90;;;;;;4119460;28;20045;-87
2023/03/10 01:39:18;;;;;;;16.90;7.25;;;-0.80;67.10;;;;;;4119094;28;20404;-86
2023/03/10 01:41:40;;;;;;;15.55;7.10;;;-0.70;67.30;;;;;;4119546;28;20038;-86
2023/03/10 01:44:11;;;;;;;19.75;8.25;;;-0.80;67.10;;;;;;4118316;28;20117;-86
2023/03/10 01:46:43;;;;;;;14.23;6.63;;;-0.80;67.30;;;;;;4117159;28;20026;-85
2023/03/10 01:49:16;;;;;;;14.98;7.55;;;-0.80;67.30;;;;;;4116181;28;20034;-86
2023/03/10 01:51:40;;;;;;;15.43;7.28;;;-0.90;67.10;;;;;;4128308;28;20023;-86
2023/03/10 01:54:04;;;;;;;16.83;7.88;;;-0.80;67.20;;;;;;4116376;28;20034;-85
2023/03/10 01:56:25;;;;;;;19.42;7.97;;;-0.90;67.10;;;;;;4103413;28;21132;-85
2023/03/10 01:58:49;;;;;;;;;;;-1.00;67.00;;;;;;4118327;28;20061;-86
2023/03/10 02:01:10;;;;;;;20.20;7.75;;;-0.90;67.80;;;;;;4118356;28;19971;-86
2023/03/10 02:03:42;;;;;;;22.00;8.15;;;-1.00;67.00;;;;;;4100996;28;20027;-86
2023/03/10 02:06:12;;;;;;;19.05;8.15;;;-1.00;67.10;;;;;;4101242;28;20115;-86
2023/03/10 02:08:48;;;;;;;18.85;8.43;;;-1.00;67.30;;;;;;4115761;28;20074;-85
2023/03/10 02:10:53;;;;;;;16.97;8.00;;;-1.00;67.50;;;;;;4096780;28;20042;-86
2023/03/10 02:13:05;;;;;;;17.30;7.82;;;-1.00;67.70;;;;;;4115060;28;20317;-86
2023/03/10 02:15:07;;;;;;;20.60;8.50;;;-1.10;67.80;;;;;;4127463;28;20031;-87
2023/03/10 02:17:12;;;;;;;17.63;8.85;;;-1.10;67.80;;;;;;4119585;28;20031;-87
2023/03/10 02:19:46;;;;;;;17.40;8.48;;;-1.00;68.10;;;;;;4100806;28;20023;-88
2023/03/10 02:22:04;;;;;;;20.80;8.63;;;-1.10;68.40;;;;;;4108928;28;20100;-87
2023/03/10 02:24:33;;;;;;;19.25;8.50;;;-1.10;68.40;;;;;;4113350;28;20286;-87
2023/03/10 02:26:33;;;;;;;19.48;7.72;;;-1.10;68.20;;;;;;4115141;28;20027;-86
2023/03/10 02:28:34;;;;;;;20.27;8.43;;;-1.10;68.30;;;;;;4084174;29;20063;-86
2023/03/10 02:30:41;;;;;;;16.48;7.93;;;-1.00;68.40;;;;;;4097979;28;20047;-86
2023/03/10 02:32:49;;;;;;;20.35;8.35;;;-1.00;68.50;;;;;;4111453;28;20026;-86
2023/03/10 02:34:50;;;;;;;14.70;7.20;;;-1.10;68.60;;;;;;4091596;28;20066;-86
2023/03/10 02:36:50;;;;;;;17.48;7.95;;;-1.00;68.80;;;;;;4091947;28;20572;-87
2023/03/10 02:38:51;;;;;;;17.80;8.00;;;-1.00;68.80;;;;;;4075865;29;20506;-86
2023/03/10 02:40:54;;;;;;;17.73;7.78;;;-1.00;68.80;;;;;;4114443;28;20425;-87
2023/03/10 02:42:55;;;;;;;22.80;8.65;;;-1.00;68.90;;;;;;4117189;28;20023;-86
2023/03/10 02:44:56;;;;;;;22.30;9.02;;;-1.00;69.00;;;;;;4102921;28;20066;-87
2023/03/10 02:46:56;;;;;;;15.27;8.05;;;-1.00;69.00;;;;;;4119752;28;20043;-86
2023/03/10 02:49:02;;;;;;;19.48;9.07;;;-1.00;69.10;;;;;;4104668;28;20865;-87
2023/03/10 02:51:11;;;;;;;16.70;8.27;;;-1.00;69.90;;;;;;4100061;28;20571;-86
2023/03/10 02:53:22;;;;;;;19.27;9.07;;;-0.90;69.30;;;;;;4087211;29;20036;-87
2023/03/10 02:55:23;;;;;;;20.92;9.27;;;-0.90;69.40;;;;;;4118790;28;20046;-86
2023/03/10 02:57:23;;;;;;;20.92;9.00;;;-0.90;69.40;;;;;;4087391;29;20381;-86
2023/03/10 02:59:24;;;;;;;20.05;9.73;;;-0.90;69.40;;;;;;4117551;28;20503;-86
2023/03/10 03:01:25;;;;;;;19.55;9.57;;;-0.90;69.60;;;;;;4119400;28;20019;-86
2023/03/10 03:03:26;;;;;;;22.20;11.35;;;-0.90;70.00;;;;;;4120085;28;20069;-86
2023/03/10 03:05:26;;;;;;;24.73;12.13;;;-0.90;70.70;;;;;;4100719;28;20036;-87
2023/03/10 03:07:27;;;;;;;23.73;11.57;;;-0.90;71.70;;;;;;4119055;28;20026;-86
2023/03/10 03:09:28;;;;;;;24.63;12.63;;;-0.90;71.70;;;;;;4117434;28;20042;-85
2023/03/10 03:11:28;;;;;;;25.35;13.23;;;-0.80;72.10;;;;;;4103246;28;20031;-86
2023/03/10 03:13:29;;;;;;;25.25;13.07;;;-0.80;73.50;;;;;;4093152;29;20231;-86
2023/03/10 03:15:30;;;;;;;30.90;14.82;;;-0.80;74.30;;;;;;4120190;28;20041;-84
2023/03/10 03:17:31;;;;;;;27.75;13.80;;;-0.70;75.40;;;;;;4117933;28;20023;-86
2023/03/10 03:19:31;;;;;;;30.02;14.07;;;-0.70;76.10;;;;;;4117973;28;20661;-86
2023/03/10 03:21:32;;;;;;;36.30;15.95;;;-0.70;76.00;;;;;;4118430;28;20030;-86
2023/03/10 03:23:34;;;;;;;29.13;15.23;;;-0.60;76.80;;;;;;4101132;28;20035;-85
2023/03/10 03:25:37;;;;;;;35.38;15.15;;;-0.60;77.30;;;;;;4119934;28;20031;-86
2023/03/10 03:27:38;;;;;;;31.88;16.42;;;-0.50;77.90;;;;;;4119242;28;20058;-85
2023/03/10 03:29:39;;;;;;;34.92;17.80;;;-0.50;78.20;;;;;;4119374;28;20038;-86
2023/03/10 03:31:39;;;;;;;32.70;17.17;;;-0.40;78.90;;;;;;4100964;28;20520;-85
2023/03/10 03:33:40;;;;;;;34.90;17.67;;;-0.40;78.90;;;;;;4119901;28;20739;-85
2023/03/10 03:35:42;;;;;;;37.72;16.70;;;-0.30;79.40;;;;;;4103959;28;20498;-85
2023/03/10 03:37:43;;;;;;;30.65;16.45;;;-0.20;79.00;;;;;;4119513;28;20110;-86
2023/03/10 03:39:43;;;;;;;35.47;19.00;;;-0.20;79.10;;;;;;4101133;28;20019;-85
2023/03/10 03:41:44;;;;;;;40.95;19.15;;;-0.10;79.40;;;;;;4103364;28;20106;-86
2023/03/10 03:43:45;;;;;;;36.20;18.25;;;-0.10;80.00;;;;;;4106181;28;20521;-86
2023/03/10 03:45:45;;;;;;;40.22;19.75;;;-0.10;79.70;;;;;;4082990;29;20071;-86
2023/03/10 03:47:46;;;;;;;38.10;20.35;;;-0.10;80.40;;;;;;4085064;29;20615;-85
2023/03/10 03:49:47;;;;;;;42.03;20.00;;;0.00;80.20;;;;;;4111793;28;20060;-87
2023/03/10 03:51:47;;;;;;;39.60;18.17;;;0.00;79.80;;;;;;4116092;28;20053;-87
2023/03/10 03:53:48;;;;;;;36.75;18.48;;;0.00;79.70;;;;;;4096374;28;20659;-85
2023/03/10 03:55:50;;;;;;;36.03;19.58;;;0.10;79.60;;;;;;4094394;28;20031;-85
2023/03/10 03:57:50;;;;;;;36.50;19.13;;;0.10;79.80;;;;;;4097343;28;20291;-85
2023/03/10 03:59:51;;;;;;;38.33;18.90;;;0.10;79.40;;;;;;4081967;29;20575;-85
2023/03/10 04:01:52;;;;;;;35.22;19.35;;;0.10;79.20;;;;;;4097607;28;20066;-85
2023/03/10 04:03:53;;;;;;;36.25;19.48;;;0.10;79.10;;;;;;4114549;28;20286;-85
2023/03/10 04:05:53;;;;;;;40.55;22.05;;;0.20;79.00;;;;;;4115844;28;20412;-85
2023/03/10 04:07:54;;;;;;;45.95;22.10;;;0.20;78.90;;;;;;4117024;28;20070;-85
2023/03/10 04:09:55;;;;;;;38.78;20.73;;;0.20;78.70;;;;;;4117497;28;20023;-85
2023/03/10 04:11:55;;;;;;;38.80;20.15;;;0.20;78.60;;;;;;4117228;28;20114;-84
2023/03/10 04:13:56;;;;;;;47.00;23.42;;;0.30;78.30;;;;;;4097367;28;20039;-84
2023/03/10 04:15:58;;;;;;;41.33;20.08;;;0.20;78.30;;;;;;4096483;28;20042;-84
2023/03/10 04:17:59;;;;;;;38.55;20.63;;;0.30;78.40;;;;;;4075595;29;20028;-84
2023/03/10 04:20:00;;;;;;;35.60;19.65;;;0.20;78.10;;;;;;4089946;28;20039;-84
2023/03/10 04:22:00;;;;;;;36.75;18.60;;;0.30;78.10;;;;;;4111347;28;20832;-85
2023/03/10 04:24:02;;;;;;;33.85;17.50;;;0.30;77.60;;;;;;4109438;28;20073;-84
2023/03/10 04:26:07;;;;;;;34.83;16.50;;;0.30;77.30;;;;;;4111230;28;20023;-84
2023/03/10 04:28:09;;;;;;;36.05;17.90;;;0.20;76.90;;;;;;4093088;28;20356;-84
2023/03/10 04:30:14;;;;;;;31.85;16.58;;;0.20;76.80;;;;;;4093191;28;20031;-83
2023/03/10 04:32:14;;;;;;;32.55;16.88;;;0.20;76.60;;;;;;4112597;28;20030;-84
2023/03/10 04:34:15;;;;;;;32.05;17.65;;;0.30;76.60;;;;;;4105035;28;20674;-85
2023/03/10 04:36:17;;;;;;;30.58;16.35;;;0.30;76.40;;;;;;4095568;28;20150;-84
2023/03/10 04:38:18;;;;;;;30.60;16.27;;;0.30;76.40;;;;;;4115617;28;20058;-85
2023/03/10 04:40:19;;;;;;;30.80;16.77;;;0.30;76.40;;;;;;4114850;28;20031;-84
2023/03/10 04:42:21;;;;;;;34.72;18.23;;;0.40;76.40;;;;;;4096348;28;20030;-84
2023/03/10 04:44:21;;;;;;;33.65;17.83;;;0.30;76.60;;;;;;4110091;28;20713;-84
2023/03/10 04:46:22;;;;;;;33.45;17.70;;;0.30;76.70;;;;;;4116095;28;20152;-84
2023/03/10 04:48:23;;;;;;;33.80;16.92;;;0.30;76.70;;;;;;4085698;29;20029;-85
2023/03/10 04:50:23;;;;;;;32.08;17.05;;;0.40;76.60;;;;;;4114181;28;20046;-84
2023/03/10 04:52:24;;;;;;;33.22;16.35;;;0.40;76.50;;;;;;4096990;28;20577;-84
2023/03/10 04:54:25;;;;;;;33.13;17.77;;;0.40;76.30;;;;;;4117067;28;20041;-84
2023/03/10 04:56:29;;;;;;;32.60;16.92;;;0.40;76.20;;;;;;4094524;28;20050;-85
2023/03/10 04:58:30;;;;;;;33.05;17.67;;;0.30;76.10;;;;;;4096418;28;20103;-83
2023/03/10 05:00:30;;;;;;;35.25;17.67;;;0.40;76.00;;;;;;4114261;28;20042;-83
2023/03/10 05:02:31;;;;;;;33.58;15.35;;;0.40;76.00;;;;;;4115365;28;20053;-83
2023/03/10 05:04:32;;;;;;;32.78;18.33;;;0.40;76.10;;;;;;4096795;28;20019;-83
2023/03/10 05:06:32;;;;;;;31.48;17.73;;;0.50;76.30;;;;;;4112262;28;20385;-85
2023/03/10 05:08:33;;;;;;;36.67;18.85;;;0.50;76.20;;;;;;4111291;28;20569;-82
2023/03/10 05:10:34;;;;;;;30.08;16.63;;;0.40;76.10;;;;;;4112326;28;20332;-82
2023/03/10 05:12:38;;;;;;;31.55;17.05;;;0.40;75.70;;;;;;4094678;28;20063;-83
2023/03/10 05:14:55;;;;;;;32.15;16.30;;;0.40;75.50;;;;;;4113673;28;20041;-83
2023/03/10 05:17:16;;;;;;;33.05;17.58;;;0.40;75.20;;;;;;4113447;28;20030;-83
2023/03/10 05:20:08;;;;;;;35.08;19.25;;;0.50;74.90;;;;;;4096654;28;20118;-82
2023/03/10 05:22:29;;;;;;;33.33;17.50;;;0.40;74.70;;;;;;4112335;28;20031;-84
2023/03/10 05:24:30;;;;;;;32.50;15.80;;;0.40;74.30;;;;;;4112957;28;20078;-84
2023/03/10 05:26:57;;;;;;;33.00;16.70;;;0.50;74.10;;;;;;4107062;28;20126;-83
2023/03/10 05:29:19;;;;;;;31.55;17.17;;;0.40;74.00;;;;;;4114917;28;20519;-84
2023/03/10 05:31:40;;;;;;;24.55;13.93;;;0.50;73.70;;;;;;4115696;28;20069;-84
2023/03/10 05:33:44;;;;;;;24.00;12.98;;;0.40;72.90;;;;;;4110501;28;20125;-84
2023/03/10 05:36:10;;;;;;;28.25;11.98;;;0.50;72.40;;;;;;4114708;28;20053;-83
2023/03/10 05:38:30;;;;;;;26.67;13.02;;;0.50;71.90;;;;;;4101050;28;20035;-84
2023/03/10 05:40:51;;;;;;;21.13;11.20;;;0.40;70.70;;;;;;4102695;28;20182;-84
2023/03/10 05:43:12;;;;;;;27.73;13.73;;;0.50;70.60;;;;;;4113783;28;20034;-84
2023/03/10 05:45:32;;;;;;;30.27;13.52;;;0.50;70.40;;;;;;4117778;28;20031;-83
2023/03/10 05:47:53;;;;;;;27.08;13.18;;;0.40;70.80;;;;;;4092668;28;20042;-84
2023/03/10 05:50:14;;;;;;;28.83;13.90;;;0.40;71.90;;;;;;4111352;28;20034;-83
2023/03/10 05:52:40;;;;;;;27.50;12.77;;;0.50;71.40;;;;;;4115147;28;20030;-83
2023/03/10 05:55:13;;;;;;;29.23;13.57;;;0.50;71.40;;;;;;4117059;28;20050;-83
2023/03/10 05:57:34;;;;;;;24.75;12.65;;;0.60;71.60;;;;;;4100271;28;20042;-83
2023/03/10 05:59:54;;;;;;;22.50;11.43;;;0.50;71.20;;;;;;4108027;28;20038;-85
2023/03/10 06:02:15;;;;;;;22.10;11.35;;;0.50;71.00;;;;;;4095343;28;20039;-84
2023/03/10 06:04:36;;;;;;;19.38;10.93;;;0.40;70.20;;;;;;4113924;28;20023;-86
2023/03/10 06:06:59;;;;;;;21.52;10.88;;;0.50;69.50;;;;;;4113435;28;20041;-83
2023/03/10 06:09:20;;;;;;;26.20;11.73;;;0.60;69.00;;;;;;4109492;28;20043;-83
2023/03/10 06:11:50;;;;;;;24.17;11.55;;;0.40;69.20;;;;;;4110340;28;20142;-83
2023/03/10 06:13:53;;;;;;;23.75;11.80;;;0.40;69.50;;;;;;4075373;29;20665;-84
2023/03/10 06:16:02;;;;;;;26.35;12.50;;;0.40;70.30;;;;;;4099597;28;20027;-83
2023/03/10 06:18:03;;;;;;;24.60;11.82;;;0.60;70.80;;;;;;4114488;28;20047;-84
2023/03/10 06:20:09;;;;;;;27.98;13.32;;;0.60;70.60;;;;;;4099755;28;20048;-84
2023/03/10 06:22:12;;;;;;;27.15;13.80;;;0.60;70.70;;;;;;4109818;28;20038;-83
2023/03/10 06:24:16;;;;;;;29.73;12.48;;;0.70;71.40;;;;;;4081679;28;20074;-83
2023/03/10 06:26:17;;;;;;;27.92;13.25;;;0.80;71.30;;;;;;4099267;28;20085;-85
2023/03/10 06:28:18;;;;;;;24.20;12.25;;;0.70;71.40;;;;;;4096889;28;20023;-84
2023/03/10 06:30:19;;;;;;;22.98;12.48;;;0.80;71.40;;;;;;4097261;28;20057;-84
2023/03/10 06:32:20;;;;;;;22.90;12.15;;;0.70;71.40;;;;;;4096313;28;20086;-83
2023/03/10 06:34:41;;;;;;;20.90;10.10;;;0.80;71.20;;;;;;4096411;28;20035;-85
2023/03/10 06:36:45;;;;;;;23.48;10.40;;;0.80;70.80;;;;;;4099073;28;20287;-84
2023/03/10 06:38:46;;;;;;;19.95;9.60;;;0.80;70.10;;;;;;4096493;28;20039;-83
2023/03/10 06:40:49;;;;;;;14.38;8.27;;;0.80;69.60;;;;;;4112161;28;20026;-83
2023/03/10 06:42:50;;;;;;;16.00;8.75;;;0.80;69.10;;;;;;4081186;29;20031;-84
2023/03/10 06:44:54;;;;;;;17.98;8.05;;;0.80;68.60;;;;;;4113597;28;20035;-84
2023/03/10 06:46:55;;;;;;;14.85;8.05;;;0.80;68.20;;;;;;4099693;28;20030;-85
2023/03/10 06:48:56;;;;;;;17.55;8.30;;;0.90;67.90;;;;;;4080977;29;20223;-84
2023/03/10 06:51:00;;;;;;;15.25;7.70;;;0.90;67.50;;;;;;4082616;29;20063;-84
2023/03/10 06:53:01;;;;;;;14.75;8.32;;;0.80;67.40;;;;;;4114682;28;20023;-84
2023/03/10 06:55:02;;;;;;;18.63;8.40;;;0.90;67.50;;;;;;4096056;28;20023;-84
2023/03/10 06:57:07;;;;;;;17.58;8.82;;;0.80;67.40;;;;;;4081457;29;20028;-84
2023/03/10 06:59:10;;;;;;;14.85;8.50;;;0.80;67.60;;;;;;4100870;28;20027;-85
2023/03/10 07:01:24;;;;;;;17.73;9.50;;;0.90;67.80;;;;;;4115580;28;20050;-84
2023/03/10 07:03:28;;;;;;;17.45;8.75;;;0.90;67.80;;;;;;4100028;28;20481;-83
2023/03/10 07:05:29;;;;;;;21.40;10.23;;;1.00;68.00;;;;;;4117350;28;20019;-84
2023/03/10 07:07:33;;;;;;;17.38;8.90;;;1.00;68.20;;;;;;4114682;28;20046;-83
2023/03/10 07:09:34;;;;;;;21.17;9.80;;;1.00;68.50;;;;;;4094493;28;20477;-83
2023/03/10 07:11:35;;;;;;;22.95;9.32;;;1.00;68.60;;;;;;4080217;29;20023;-83
2023/03/10 07:13:36;;;;;;;18.20;8.52;;;1.10;68.90;;;;;;4113738;28;20024;-84
2023/03/10 07:15:39;;;;;;;21.27;9.65;;;1.10;68.70;;;;;;4093395;28;20028;-83
2023/03/10 07:17:40;;;;;;;19.77;9.60;;;1.10;68.50;;;;;;4109646;28;20393;-83
2023/03/10 07:19:40;;;;;;;20.40;9.07;;;1.10;68.30;;;;;;4075691;29;20024;-84
2023/03/10 07:21:43;;;;;;;16.65;9.18;;;1.00;68.10;;;;;;4098942;28;20023;-84
2023/03/10 07:24:04;;;;;;;19.45;9.60;;;1.10;68.70;;;;;;4096635;28;20027;-84
2023/03/10 07:26:24;;;;;;;18.52;9.13;;;1.10;68.00;;;;;;4094391;28;20027;-84
2023/03/10 07:28:45;;;;;;;16.75;8.90;;;1.10;67.90;;;;;;4115972;28;20042;-83
2023/03/10 07:31:15;;;;;;;17.88;9.05;;;1.20;67.80;;;;;;4092841;28;20055;-84
2023/03/10 07:33:37;;;;;;;20.77;10.25;;;1.30;67.80;;;;;;4116996;28;20038;-84
2023/03/10 07:36:02;;;;;;;18.70;9.23;;;1.20;67.70;;;;;;4117697;28;20034;-84
2023/03/10 07:38:34;;;;;;;17.33;8.77;;;1.20;67.60;;;;;;4118849;28;20099;-83
2023/03/10 07:40:55;;;;;;;19.95;9.70;;;1.30;67.80;;;;;;4094748;28;20116;-83
2023/03/10 07:43:16;;;;;;;18.23;9.25;;;1.30;67.80;;;;;;4113502;28;20113;-82
2023/03/10 07:45:37;;;;;;;24.60;10.63;;;1.20;67.80;;;;;;4114030;28;20070;-82
2023/03/10 07:47:58;;;;;;;24.23;10.50;;;1.40;68.10;;;;;;4114998;28;20038;-83
2023/03/10 07:50:20;;;;;;;18.60;10.23;;;1.30;68.30;;;;;;4115686;28;20054;-84
2023/03/10 07:52:24;;;;;;;21.02;10.65;;;1.30;68.40;;;;;;4115226;28;20077;-84
2023/03/10 07:54:25;;;;;;;23.05;10.98;;;1.40;68.90;;;;;;4100869;28;20027;-83
2023/03/10 07:56:29;;;;;;;21.27;10.93;;;1.30;68.90;;;;;;4117356;28;20105;-84
2023/03/10 07:58:32;;;;;;;23.60;10.85;;;1.30;69.30;;;;;;4119070;28;20034;-84
2023/03/10 08:00:35;;;;;;;23.25;11.55;;;1.40;69.70;;;;;;4119215;28;20114;-84
2023/03/10 08:02:36;;;;;;;22.38;11.65;;;1.30;70.00;;;;;;4088696;29;20549;-84
2023/03/10 08:04:36;;;;;;;25.75;11.48;;;1.40;70.20;;;;;;4100243;28;20027;-84
2023/03/10 08:06:37;;;;;;;26.25;11.43;;;1.30;70.30;;;;;;4119693;28;20041;-85
2023/03/10 08:08:38;;;;;;;25.40;11.75;;;1.40;70.50;;;;;;4120881;28;20262;-83
2023/03/10 08:10:39;;;;;;;20.67;10.68;;;1.30;70.70;;;;;;4100719;28;20251;-84
2023/03/10 08:12:40;;;;;;;20.70;11.13;;;1.40;70.80;;;;;;4097646;28;20077;-84
2023/03/10 08:14:40;;;;;;;22.60;11.35;;;1.30;70.70;;;;;;4103491;28;20024;-85
2023/03/10 08:16:41;;;;;;;21.25;10.40;;;1.40;70.90;;;;;;4101179;28;20110;-83
2023/03/10 08:18:42;;;;;;;29.98;10.07;;;1.50;70.90;;;;;;4101139;28;20112;-84
2023/03/10 08:20:43;;;;;;;20.63;10.30;;;1.50;71.00;;;;;;4117910;28;20031;-84
2023/03/10 08:22:44;;;;;;;20.00;10.18;;;1.50;71.00;;;;;;4094970;28;20031;-83
2023/03/10 08:24:57;;;;;;;20.15;10.00;;;1.50;70.90;;;;;;4102854;28;21329;-84
2023/03/10 08:27:00;;;;;;;20.30;9.82;;;1.50;70.80;;;;;;4118059;28;20031;-82
2023/03/10 08:29:04;;;;;;;21.77;9.82;;;1.60;70.80;;;;;;4102774;28;20031;-84
2023/03/10 08:31:14;;;;;;;18.23;8.68;;;1.50;70.70;;;;;;4085750;29;20067;-85
2023/03/10 08:35:43;;;;;;;19.83;9.23;;;1.70;70.50;;;;;;4100538;28;20046;-84
2023/03/10 08:37:45;;;;;;;18.92;8.60;;;1.80;70.30;;;;;;4086884;29;20115;-84
2023/03/10 08:39:46;;;;;;;20.60;9.77;;;1.90;70.10;;;;;;4080501;29;20051;-84
2023/03/10 08:41:48;;;;;;;16.10;8.35;;;1.80;69.80;;;;;;4102148;28;20540;-84
2023/03/10 08:43:51;;;;;;;16.60;8.70;;;1.90;69.50;;;;;;4102228;28;20035;-85
2023/03/10 08:45:51;;;;;;;19.20;9.07;;;1.90;69.20;;;;;;4077330;28;20481;-83
2023/03/10 08:47:52;;;;;;;16.05;8.80;;;1.90;69.00;;;;;;4083740;29;20574;-84
2023/03/10 08:49:53;;;;;;;20.55;9.55;;;2.00;68.60;;;;;;4085224;29;20090;-84
2023/03/10 08:51:56;;;;;;;19.02;9.35;;;2.00;68.50;;;;;;4100701;28;20031;-84
2023/03/10 08:54:07;;;;;;;15.10;8.45;;;1.90;68.20;;;;;;4105630;28;20039;-84
2023/03/10 08:56:10;;;;;;;12.50;7.22;;;1.80;66.70;;;;;;4082827;29;20762;-85
2023/03/10 08:58:16;;;;;;;14.35;7.30;;;1.90;65.50;;;;;;4085228;29;20108;-84
2023/03/10 09:00:19;;;;;;;13.43;7.20;;;1.80;64.00;;;;;;4111102;28;20042;-83
2023/03/10 09:02:21;;;;;;;13.10;6.60;;;1.90;64.40;;;;;;4074222;29;20119;-86
2023/03/10 09:04:42;;;;;;;21.38;9.60;;;2.00;64.10;;;;;;4101068;28;20151;-84
2023/03/10 09:06:53;;;;;;;18.25;8.52;;;2.10;63.50;;;;;;4085460;29;20059;-85
2023/03/10 09:08:55;;;;;;;15.40;7.80;;;2.10;63.10;;;;;;4101578;28;20120;-84
2023/03/10 09:11:13;;;;;;;16.35;8.35;;;2.20;62.70;;;;;;4103568;28;20024;-84
2023/03/10 09:13:20;;;;;;;11.73;6.85;;;2.20;62.90;;;;;;4116853;23;20043;-85
2023/03/10 09:15:41;;;;;;;11.60;6.22;;;2.10;61.90;;;;;;4134223;28;20031;-84
2023/03/10 09:18:01;;;;;;;11.48;6.18;;;2.20;61.50;;;;;;4145850;28;20062;-84
2023/03/10 09:20:24;;;;;;;14.73;6.28;;;2.20;60.70;;;;;;4131851;28;20030;-84
2023/03/10 09:22:45;;;;;;;10.20;6.10;;;2.20;60.50;;;;;;4133219;28;20117;-85
2023/03/10 09:25:07;;;;;;;12.90;7.07;;;2.30;60.80;;;;;;4140197;28;20026;-84
2023/03/10 09:27:28;;;;;;;12.95;6.95;;;2.40;61.30;;;;;;4124915;28;20030;-84
2023/03/10 09:29:49;;;;;;;14.20;7.60;;;2.40;61.20;;;;;;4143851;28;20033;-84
2023/03/10 09:32:10;;;;;;;14.60;7.90;;;2.40;61.50;;;;;;4130546;28;20107;-84
2023/03/10 09:34:11;;;;;;;12.93;7.32;;;2.40;61.30;;;;;;4140848;28;20034;-85
2023/03/10 09:36:11;;;;;;;15.25;8.55;;;2.50;61.40;;;;;;4146762;28;20586;-84
2023/03/10 09:38:13;;;;;;;15.20;8.35;;;2.50;60.60;;;;;;4134525;28;20533;-84
2023/03/10 09:40:19;;;;;;;15.45;8.50;;;2.50;60.90;;;;;;4145720;28;20038;-85
2023/03/10 09:42:34;;;;;;;18.17;9.77;;;2.50;61.20;;;;;;4129993;28;20034;-83
2023/03/10 09:44:53;;;;;;;19.35;9.18;;;2.50;61.60;;;;;;4124132;28;20111;-84
2023/03/10 09:47:09;;;;;;;16.17;9.25;;;2.50;62.20;;;;;;4114328;28;20019;-84
2023/03/10 09:49:25;;;;;;;18.83;9.82;;;2.50;62.80;;;;;;4132968;28;20054;-85
2023/03/10 09:51:27;;;;;;;21.70;9.88;;;2.50;63.30;;;;;;4127259;28;20054;-84
2023/03/10 09:54:06;;;;;;;17.50;9.15;;;2.50;63.30;;;;;;4110105;28;20043;-84
2023/03/10 09:56:15;;;;;;;16.75;9.40;;;2.60;64.00;;;;;;4123595;28;20023;-85
2023/03/10 09:58:35;;;;;;;17.88;10.40;;;2.70;64.60;;;;;;4135580;28;20057;-84
2023/03/10 10:00:40;;;;;;;19.10;10.13;;;2.70;64.70;;;;;;4146581;28;20909;-84
2023/03/10 10:02:48;;;;;;;18.20;10.43;;;2.80;65.10;;;;;;4129281;28;20026;-84
2023/03/10 10:04:54;;;;;;;19.88;10.75;;;2.90;65.10;;;;;;4132202;28;20026;-83
2023/03/10 10:06:56;;;;;;;23.52;10.38;;;2.90;64.20;;;;;;4147040;28;20019;-85
2023/03/10 10:09:08;;;;;;;16.25;9.68;;;2.90;63.30;;;;;;4130796;28;20235;-84
2023/03/10 10:11:21;;;;;;;16.73;9.65;;;2.90;62.60;;;;;;4133071;28;20035;-84
2023/03/10 10:13:30;;;;;;;22.50;10.68;;;3.00;62.20;;;;;;4128583;28;20038;-84
2023/03/10 10:15:35;;;;;;;22.65;11.35;;;3.00;62.60;;;;;;4114380;28;20031;-84
2023/03/10 10:17:56;;;;;;;20.17;9.68;;;3.00;63.40;;;;;;4147525;28;20026;-84
2023/03/10 10:19:58;;;;;;;19.10;11.10;;;3.00;63.20;;;;;;4130064;28;20088;-85
2023/03/10 10:22:16;;;;;;;19.40;10.32;;;3.10;63.30;;;;;;4118947;28;20031;-84
2023/03/10 10:24:23;;;;;;;20.27;10.63;;;3.10;63.10;;;;;;4127432;28;20109;-84
2023/03/10 10:26:27;;;;;;;25.25;11.00;;;3.00;63.30;;;;;;4118079;28;20731;-84
2023/03/10 10:28:55;;;;;;;24.45;11.68;;;3.20;63.70;;;;;;4111297;28;20035;-84
2023/03/10 10:31:19;;;;;;;20.73;10.95;;;3.20;64.00;;;;;;4130901;28;20049;-84
2023/03/10 10:33:20;;;;;;;24.48;12.20;;;3.10;64.50;;;;;;4133583;28;20090;-84
2023/03/10 10:35:24;;;;;;;24.65;11.90;;;3.10;64.90;;;;;;4134299;28;20034;-84
2023/03/10 10:37:41;;;;;;;23.90;11.77;;;3.00;65.20;;;;;;4119225;28;20312;-83
2023/03/10 10:39:42;;;;;;;20.55;11.63;;;3.10;65.30;;;;;;4125141;28;20038;-84
2023/03/10 10:41:45;;;;;;;;;;;3.00;65.40;;;;;;4134996;28;20026;-84
2023/03/10 10:43:47;;;;;;;24.30;11.95;;;3.10;65.80;;;;;;4144594;28;19913;-83
2023/03/10 10:45:54;;;;;;;20.00;11.10;;;3.00;65.70;;;;;;4113593;28;20045;-84
2023/03/10 10:48:01;;;;;;;26.05;11.25;;;3.00;65.80;;;;;;4128400;28;20053;-84
2023/03/10 10:50:27;;;;;;;22.92;12.95;;;3.10;66.90;;;;;;4135999;28;20110;-85
2023/03/10 10:53:23;;;;;;;24.52;12.02;;;3.20;67.60;;;;;;4124411;28;20495;-85
2023/03/10 10:56:07;;;;;;;26.67;12.23;;;3.20;67.50;;;;;;4127453;28;20109;-85
2023/03/10 10:58:41;;;;;;;25.98;11.77;;;3.20;67.10;;;;;;4124846;28;20035;-85
2023/03/10 11:01:11;;;;;;;19.92;11.43;;;3.30;66.80;;;;;;4136581;28;20034;-84
2023/03/10 11:03:40;;;;;;;21.40;12.05;;;3.30;65.60;;;;;;4138128;28;20104;-84
2023/03/10 11:06:17;;;;;;;21.35;11.60;;;3.30;65.00;;;;;;4149491;28;20053;-88
2023/03/10 11:08:51;;;;;;;19.00;11.25;;;3.20;64.80;;;;;;4138168;28;20081;-85
2023/03/10 11:11:37;;;;;;;22.42;12.32;;;3.20;65.10;;;;;;4140040;28;20034;-84
2023/03/10 11:14:38;;;;;;;16.92;10.07;;;3.30;65.30;;;;;;4147240;28;20061;-84
2023/03/10 11:17:26;;;;;;;20.20;11.48;;;3.20;64.60;;;;;;4137999;28;20085;-85
2023/03/10 11:20:01;;;;;;;20.67;10.70;;;3.20;64.70;;;;;;4144212;28;20458;-85